Time;durP1;ratioP1;P1;durP2;ratioP2;P2;SDS_P1;SDS_P2;PMS_P1;PMS_P2;Temp;Humidity;BMP_temperature;BMP_pressure;BME280_temperature;BME280_humidity;BME280_pressure;Samples;Min_cycle;Max_cycle;Signal;HPM_P1;HPM_P2
2021/01/18 00:01:19;;;;;;;187.27;89.03;;;;;;;;;;5013544;28;20028;-65
2021/01/18 00:03:45;;;;;;;194.65;90.20;;;;;;;;;;5013512;28;20021;-65
2021/01/18 00:06:14;;;;;;;218.07;100.18;;;;;;;;;;5013971;28;20037;-64
2021/01/18 00:08:40;;;;;;;211.10;95.93;;;;;;;;;;5014079;28;20030;-65
2021/01/18 00:11:05;;;;;;;189.25;88.45;;;;;;;;;;5013832;28;20599;-65
2021/01/18 00:13:31;;;;;;;212.85;96.00;;;;;;;;;;5012554;28;20469;-65
2021/01/18 00:15:57;;;;;;;267.65;117.75;;;;;;;;;;5013961;28;20034;-65
2021/01/18 00:18:22;;;;;;;290.45;128.13;;;;;;;;;;5013882;28;20014;-65
2021/01/18 00:20:48;;;;;;;274.60;119.95;;;;;;;;;;5012479;28;20033;-65
2021/01/18 00:23:14;;;;;;;277.95;119.72;;;;;;;;;;5013933;28;20017;-65
2021/01/18 00:25:39;;;;;;;252.13;111.45;;;;;;;;;;5013469;28;20153;-65
2021/01/18 00:28:05;;;;;;;283.75;128.07;;;;;;;;;;5013144;28;20487;-65
2021/01/18 00:30:30;;;;;;;367.02;162.68;;;;;;;;;;5013345;28;20033;-65
2021/01/18 00:32:58;;;;;;;350.52;141.40;;;;;;;;;;5013684;28;20408;-65
2021/01/18 00:35:25;;;;;;;308.83;124.70;;;;;;;;;;5013593;28;20030;-65
2021/01/18 00:37:52;;;;;;;351.10;139.50;;;;;;;;;;5013325;28;20014;-65
2021/01/18 00:40:21;;;;;;;313.92;128.45;;;;;;;;;;5013200;28;20050;-65
2021/01/18 00:42:46;;;;;;;309.05;128.82;;;;;;;;;;5013327;28;20022;-65
2021/01/18 00:45:14;;;;;;;309.00;127.70;;;;;;;;;;5013163;28;20038;-66
2021/01/18 00:47:42;;;;;;;289.27;123.80;;;;;;;;;;5013179;28;20419;-65
2021/01/18 00:50:10;;;;;;;302.63;129.48;;;;;;;;;;5013343;28;20049;-65
2021/01/18 00:52:38;;;;;;;313.35;134.60;;;;;;;;;;5013168;28;20022;-64
2021/01/18 00:55:04;;;;;;;317.90;139.80;;;;;;;;;;5011907;28;20060;-64
2021/01/18 00:57:48;;;;;;;306.48;134.50;;;;;;;;;;5012097;28;20018;-64
2021/01/18 01:00:16;;;;;;;329.42;142.60;;;;;;;;;;5013206;28;20029;-64
2021/01/18 01:02:45;;;;;;;318.83;141.32;;;;;;;;;;5011710;28;20105;-65
2021/01/18 01:05:12;;;;;;;338.90;146.23;;;;;;;;;;5012660;28;20396;-65
2021/01/18 01:07:38;;;;;;;349.33;154.00;;;;;;;;;;5012245;28;20435;-64
2021/01/18 01:10:05;;;;;;;360.45;158.70;;;;;;;;;;5013364;28;20029;-65
2021/01/18 01:12:30;;;;;;;360.83;158.30;;;;;;;;;;5012977;28;20029;-64
2021/01/18 01:14:56;;;;;;;367.15;163.70;;;;;;;;;;5013483;28;20395;-64
2021/01/18 01:17:23;;;;;;;359.45;162.60;;;;;;;;;;5013081;28;20380;-64
2021/01/18 01:19:48;;;;;;;350.30;157.23;;;;;;;;;;5013250;28;20042;-64
2021/01/18 01:22:14;;;;;;;373.70;166.60;;;;;;;;;;5013029;28;20036;-64
2021/01/18 01:24:39;;;;;;;367.67;163.48;;;;;;;;;;5013106;28;20022;-64
2021/01/18 01:27:07;;;;;;;362.13;160.27;;;;;;;;;;5012772;28;20022;-64
2021/01/18 01:29:33;;;;;;;367.23;165.57;;;;;;;;;;5013074;28;20026;-63
2021/01/18 01:31:58;;;;;;;365.45;162.25;;;;;;;;;;5012862;28;20052;-65
2021/01/18 01:34:24;;;;;;;363.98;157.43;;;;;;;;;;5013167;28;20061;-64
2021/01/18 01:36:50;;;;;;;377.92;168.43;;;;;;;;;;5012635;28;20025;-65
2021/01/18 01:39:16;;;;;;;371.40;161.25;;;;;;;;;;5015003;28;20025;-65
2021/01/18 01:41:41;;;;;;;348.45;157.38;;;;;;;;;;5016088;28;20024;-65
2021/01/18 01:44:07;;;;;;;360.30;155.98;;;;;;;;;;5016414;28;20062;-63
2021/01/18 01:46:34;;;;;;;357.52;157.00;;;;;;;;;;5016197;28;20025;-65
2021/01/18 01:49:00;;;;;;;356.55;154.27;;;;;;;;;;5016242;28;20030;-65
2021/01/18 01:51:26;;;;;;;355.25;153.85;;;;;;;;;;5016177;28;20101;-65
2021/01/18 01:53:52;;;;;;;356.55;156.77;;;;;;;;;;5016024;28;20064;-65
2021/01/18 01:56:19;;;;;;;353.05;154.35;;;;;;;;;;5016244;28;20445;-65
2021/01/18 01:58:45;;;;;;;359.33;154.07;;;;;;;;;;5016003;28;20103;-64
2021/01/18 02:01:10;;;;;;;339.65;145.88;;;;;;;;;;5016189;28;20029;-65
2021/01/18 02:03:42;;;;;;;346.08;147.80;;;;;;;;;;5016024;28;20026;-65
2021/01/18 02:06:09;;;;;;;319.40;137.73;;;;;;;;;;5015951;28;20477;-68
2021/01/18 02:08:35;;;;;;;323.13;137.65;;;;;;;;;;5015906;28;20034;-67
2021/01/18 02:11:01;;;;;;;313.17;140.05;;;;;;;;;;5015876;28;20033;-67
2021/01/18 02:13:45;;;;;;;332.73;142.55;;;;;;;;;;5015856;28;20156;-67
2021/01/18 02:16:24;;;;;;;316.13;133.43;;;;;;;;;;5014603;28;20369;-67
2021/01/18 02:19:08;;;;;;;311.17;133.57;;;;;;;;;;5016171;28;20420;-64
2021/01/18 02:21:47;;;;;;;305.88;131.75;;;;;;;;;;5016067;28;20029;-67
2021/01/18 02:24:20;;;;;;;293.85;126.35;;;;;;;;;;5016392;28;20108;-67
2021/01/18 02:26:46;;;;;;;294.42;128.90;;;;;;;;;;5014471;28;20030;-67
2021/01/18 02:29:29;;;;;;;278.08;119.78;;;;;;;;;;5015501;28;20357;-67
2021/01/18 02:32:04;;;;;;;280.23;119.82;;;;;;;;;;5015553;28;20511;-68
2021/01/18 02:34:29;;;;;;;251.68;109.82;;;;;;;;;;5015639;28;20121;-65
2021/01/18 02:37:02;;;;;;;259.83;118.13;;;;;;;;;;5014476;28;20046;-63
2021/01/18 02:39:33;;;;;;;172.95;80.45;;;;;;;;;;5015515;28;20034;-66
2021/01/18 02:42:11;;;;;;;169.85;76.78;;;;;;;;;;4997777;28;20484;-66
2021/01/18 02:44:38;;;;;;;186.07;84.97;;;;;;;;;;5015556;28;20057;-66
2021/01/18 02:47:04;;;;;;;164.10;75.38;;;;;;;;;;5015314;28;20030;-64
2021/01/18 02:49:31;;;;;;;169.50;78.32;;;;;;;;;;5014645;28;20338;-64
2021/01/18 02:52:10;;;;;;;174.30;80.60;;;;;;;;;;5015145;28;20029;-67
2021/01/18 02:54:36;;;;;;;153.82;73.75;;;;;;;;;;5015192;28;20041;-66
2021/01/18 02:57:03;;;;;;;153.70;71.28;;;;;;;;;;5014950;28;20030;-66
2021/01/18 02:59:29;;;;;;;153.68;68.97;;;;;;;;;;5014874;28;20038;-66
2021/01/18 03:02:01;;;;;;;157.93;71.93;;;;;;;;;;5014859;28;20018;-66
2021/01/18 03:04:45;;;;;;;163.90;74.80;;;;;;;;;;5014413;28;20045;-66
2021/01/18 03:07:17;;;;;;;162.35;72.47;;;;;;;;;;5013605;28;20041;-66
2021/01/18 03:09:53;;;;;;;160.57;72.47;;;;;;;;;;5013583;28;20495;-66
2021/01/18 03:12:22;;;;;;;152.20;68.88;;;;;;;;;;5014610;28;20038;-66
2021/01/18 03:14:52;;;;;;;152.07;70.65;;;;;;;;;;5014785;28;20112;-66
2021/01/18 03:17:20;;;;;;;146.15;66.63;;;;;;;;;;5013171;28;20076;-67
2021/01/18 03:19:46;;;;;;;143.60;66.72;;;;;;;;;;5014559;28;20018;-67
2021/01/18 03:22:27;;;;;;;137.25;64.18;;;;;;;;;;5014538;28;20026;-67
2021/01/18 03:24:59;;;;;;;145.88;64.78;;;;;;;;;;5014992;28;20412;-67
2021/01/18 03:27:24;;;;;;;147.73;65.75;;;;;;;;;;5014779;28;20105;-67
2021/01/18 03:29:50;;;;;;;143.27;66.82;;;;;;;;;;5014602;28;20164;-67
2021/01/18 03:32:21;;;;;;;143.82;68.78;;;;;;;;;;5014393;28;20087;-67
2021/01/18 03:34:46;;;;;;;145.13;69.40;;;;;;;;;;5014485;28;20096;-67
2021/01/18 03:37:12;;;;;;;140.18;66.72;;;;;;;;;;5014441;28;20350;-66
2021/01/18 03:39:38;;;;;;;136.20;67.05;;;;;;;;;;5014414;28;20042;-66
2021/01/18 03:42:03;;;;;;;144.93;69.05;;;;;;;;;;5012839;28;20037;-64
2021/01/18 03:44:29;;;;;;;147.48;70.70;;;;;;;;;;5014153;28;20034;-64
2021/01/18 03:46:55;;;;;;;141.75;67.60;;;;;;;;;;5014271;28;20014;-66
2021/01/18 03:49:20;;;;;;;138.98;64.88;;;;;;;;;;5014246;28;20050;-65
2021/01/18 03:51:46;;;;;;;139.18;67.63;;;;;;;;;;5014002;28;20026;-65
2021/01/18 03:54:11;;;;;;;133.13;63.20;;;;;;;;;;5014050;28;20051;-65
2021/01/18 03:56:40;;;;;;;133.27;66.13;;;;;;;;;;5013852;28;20025;-66
2021/01/18 03:59:07;;;;;;;143.07;68.65;;;;;;;;;;5012818;28;20135;-65
2021/01/18 04:01:40;;;;;;;138.38;65.93;;;;;;;;;;5011866;28;20464;-66
2021/01/18 04:04:05;;;;;;;140.38;66.13;;;;;;;;;;5014036;28;20187;-66
2021/01/18 04:06:34;;;;;;;122.45;60.03;;;;;;;;;;5014299;28;20121;-63
2021/01/18 04:09:00;;;;;;;130.60;61.22;;;;;;;;;;5014158;28;20161;-63
2021/01/18 04:11:26;;;;;;;130.25;63.00;;;;;;;;;;5013464;28;20104;-63
2021/01/18 04:13:52;;;;;;;129.15;64.13;;;;;;;;;;5013831;28;20034;-63
2021/01/18 04:16:17;;;;;;;110.57;54.38;;;;;;;;;;5013966;28;20496;-64
2021/01/18 04:18:43;;;;;;;108.97;51.75;;;;;;;;;;5014078;28;20029;-63
2021/01/18 04:21:08;;;;;;;104.22;49.20;;;;;;;;;;5013947;28;20024;-63
2021/01/18 04:23:34;;;;;;;106.30;51.50;;;;;;;;;;5012598;28;20037;-63
2021/01/18 04:25:59;;;;;;;110.15;52.30;;;;;;;;;;5013695;28;20419;-64
2021/01/18 04:28:25;;;;;;;95.45;46.60;;;;;;;;;;5013467;28;20356;-64
2021/01/18 04:30:50;;;;;;;91.22;47.25;;;;;;;;;;5013411;28;20068;-64
2021/01/18 04:33:16;;;;;;;94.63;48.00;;;;;;;;;;5013639;28;20030;-64
2021/01/18 04:35:41;;;;;;;82.15;41.53;;;;;;;;;;5013842;28;20357;-64
2021/01/18 04:38:07;;;;;;;89.97;46.15;;;;;;;;;;4996099;28;20060;-64
2021/01/18 04:40:33;;;;;;;85.72;44.60;;;;;;;;;;5013428;28;20050;-63
2021/01/18 04:42:58;;;;;;;97.18;46.17;;;;;;;;;;5013546;28;20392;-62
2021/01/18 04:45:25;;;;;;;96.95;47.60;;;;;;;;;;5012368;28;20096;-62
2021/01/18 04:47:52;;;;;;;90.68;45.53;;;;;;;;;;5013400;28;20367;-63
2021/01/18 04:50:19;;;;;;;91.80;46.10;;;;;;;;;;5013547;28;20073;-63
2021/01/18 04:52:44;;;;;;;93.38;43.95;;;;;;;;;;5013560;28;20165;-63
2021/01/18 04:55:19;;;;;;;90.38;45.55;;;;;;;;;;5013601;28;20064;-62
2021/01/18 04:57:48;;;;;;;97.10;45.90;;;;;;;;;;5013562;28;20057;-62
2021/01/18 05:00:15;;;;;;;92.93;45.92;;;;;;;;;;5013771;28;20029;-62
2021/01/18 05:02:46;;;;;;;93.65;43.97;;;;;;;;;;5013276;28;20061;-63
2021/01/18 05:05:11;;;;;;;;;;;;;;;;;;5012989;28;20053;-64
2021/01/18 05:07:37;;;;;;;95.38;44.58;;;;;;;;;;5013076;28;19910;-65
2021/01/18 05:10:12;;;;;;;87.47;43.33;;;;;;;;;;5013210;28;20041;-63
2021/01/18 05:12:39;;;;;;;89.47;41.33;;;;;;;;;;5014369;28;20153;-63
2021/01/18 05:15:05;;;;;;;80.90;38.80;;;;;;;;;;5017107;28;20029;-64
2021/01/18 05:17:44;;;;;;;73.82;35.17;;;;;;;;;;5017008;28;20465;-63
2021/01/18 05:20:17;;;;;;;71.68;35.53;;;;;;;;;;5017000;28;20065;-66
2021/01/18 05:22:43;;;;;;;75.60;36.92;;;;;;;;;;5016997;28;20061;-66
2021/01/18 05:25:09;;;;;;;63.40;32.67;;;;;;;;;;5016708;28;20052;-65
2021/01/18 05:27:55;;;;;;;69.63;35.60;;;;;;;;;;5016834;28;20034;-65
2021/01/18 05:30:21;;;;;;;73.28;36.85;;;;;;;;;;5016956;28;20030;-65
2021/01/18 05:32:58;;;;;;;71.20;35.15;;;;;;;;;;5016579;28;20082;-64
2021/01/18 05:35:24;;;;;;;71.82;36.38;;;;;;;;;;5015521;28;20037;-64
2021/01/18 05:37:59;;;;;;;75.00;37.50;;;;;;;;;;5016509;28;20080;-64
2021/01/18 05:40:25;;;;;;;65.03;34.40;;;;;;;;;;5016697;28;20033;-64
2021/01/18 05:42:51;;;;;;;68.43;35.47;;;;;;;;;;5016408;28;20022;-65
2021/01/18 05:45:46;;;;;;;57.40;30.73;;;;;;;;;;5016464;28;20124;-66
2021/01/18 05:48:12;;;;;;;62.55;31.83;;;;;;;;;;5011389;28;20401;-65
2021/01/18 05:50:38;;;;;;;65.60;33.17;;;;;;;;;;5016563;28;20022;-66
2021/01/18 05:53:24;;;;;;;67.43;35.72;;;;;;;;;;5016365;28;20033;-65
2021/01/18 05:55:50;;;;;;;62.13;31.90;;;;;;;;;;5016067;28;20042;-65
2021/01/18 05:58:35;;;;;;;67.82;32.25;;;;;;;;;;5016089;28;20018;-65
2021/01/18 06:01:01;;;;;;;77.32;36.75;;;;;;;;;;5015698;28;20546;-66
2021/01/18 06:03:28;;;;;;;85.85;39.20;;;;;;;;;;5015966;28;20021;-64
2021/01/18 06:05:54;;;;;;;87.10;39.75;;;;;;;;;;5015808;28;20046;-64
2021/01/18 06:08:19;;;;;;;92.68;41.05;;;;;;;;;;5016236;28;20117;-63
2021/01/18 06:10:49;;;;;;;84.05;40.72;;;;;;;;;;5015961;28;20042;-65
2021/01/18 06:13:18;;;;;;;81.75;38.15;;;;;;;;;;5015946;28;20068;-65
2021/01/18 06:15:43;;;;;;;64.28;34.20;;;;;;;;;;5016080;28;20025;-66
2021/01/18 06:18:14;;;;;;;76.07;37.58;;;;;;;;;;5015679;28;20034;-65
2021/01/18 06:20:42;;;;;;;60.20;32.03;;;;;;;;;;5014341;28;20080;-65
2021/01/18 06:23:09;;;;;;;59.20;31.23;;;;;;;;;;5015861;28;20033;-65
2021/01/18 06:25:37;;;;;;;53.10;29.23;;;;;;;;;;5013612;28;20357;-63
2021/01/18 06:28:03;;;;;;;59.15;32.08;;;;;;;;;;5015741;28;20022;-63
2021/01/18 06:30:29;;;;;;;62.28;33.28;;;;;;;;;;5015807;28;20018;-63
2021/01/18 06:32:57;;;;;;;75.50;40.53;;;;;;;;;;5023978;28;20025;-63
2021/01/18 06:35:30;;;;;;;73.47;39.80;;;;;;;;;;5034973;28;20044;-63
2021/01/18 06:38:03;;;;;;;79.45;39.22;;;;;;;;;;5035351;28;20036;-63
2021/01/18 06:40:33;;;;;;;80.65;40.72;;;;;;;;;;5033754;28;20048;-63
2021/01/18 06:42:59;;;;;;;86.90;42.47;;;;;;;;;;5033449;28;20037;-63
2021/01/18 06:45:33;;;;;;;74.03;38.50;;;;;;;;;;5031948;28;20499;-64
2021/01/18 06:47:59;;;;;;;64.50;33.80;;;;;;;;;;5034568;28;20037;-63
2021/01/18 06:50:29;;;;;;;69.47;36.50;;;;;;;;;;5035306;28;20037;-63
2021/01/18 06:52:56;;;;;;;68.90;36.55;;;;;;;;;;5035125;28;20029;-63
2021/01/18 06:55:25;;;;;;;78.10;38.75;;;;;;;;;;5034576;28;20052;-61
2021/01/18 06:58:02;;;;;;;69.28;37.15;;;;;;;;;;5035091;28;20427;-61
2021/01/18 07:00:28;;;;;;;65.03;34.67;;;;;;;;;;5034962;28;20037;-61
2021/01/18 07:02:58;;;;;;;67.38;35.97;;;;;;;;;;5033982;28;20021;-61
2021/01/18 07:05:32;;;;;;;68.78;35.70;;;;;;;;;;5028274;28;20392;-61
2021/01/18 07:08:03;;;;;;;70.05;37.10;;;;;;;;;;5030744;28;20083;-63
2021/01/18 07:10:30;;;;;;;72.50;37.08;;;;;;;;;;5039850;28;20021;-61
2021/01/18 07:13:04;;;;;;;72.90;37.90;;;;;;;;;;5033742;28;20079;-61
2021/01/18 07:15:31;;;;;;;78.20;40.00;;;;;;;;;;5033191;28;20037;-61
2021/01/18 07:18:04;;;;;;;78.05;41.08;;;;;;;;;;5034616;28;20437;-61
2021/01/18 07:20:34;;;;;;;60.30;29.92;;;;;;;;;;5034817;28;20107;-61
2021/01/18 07:23:15;;;;;;;57.00;27.75;;;;;;;;;;5061644;28;20515;-61
2021/01/18 07:25:46;;;;;;;63.97;30.83;;;;;;;;;;5031004;28;20099;-61
2021/01/18 07:28:14;;;;;;;67.50;33.92;;;;;;;;;;5028878;28;20542;-61
2021/01/18 07:30:40;;;;;;;61.15;30.92;;;;;;;;;;5031114;28;20698;-65
2021/01/18 07:33:09;;;;;;;67.10;33.55;;;;;;;;;;5027731;28;20026;-64
2021/01/18 07:35:41;;;;;;;64.90;33.58;;;;;;;;;;5033757;28;20484;-65
2021/01/18 07:38:10;;;;;;;61.65;31.27;;;;;;;;;;5033290;28;20112;-65
2021/01/18 07:40:35;;;;;;;86.20;44.78;;;;;;;;;;5033961;28;20037;-66
2021/01/18 07:43:01;;;;;;;93.15;48.33;;;;;;;;;;5033716;28;20472;-66
2021/01/18 07:45:29;;;;;;;88.15;48.00;;;;;;;;;;5033849;28;20021;-66
2021/01/18 07:47:55;;;;;;;86.63;46.08;;;;;;;;;;5033778;28;20017;-66
2021/01/18 07:50:28;;;;;;;88.40;45.47;;;;;;;;;;5033349;28;20491;-66
2021/01/18 07:53:08;;;;;;;95.50;47.58;;;;;;;;;;5031969;28;20040;-66
2021/01/18 07:55:34;;;;;;;94.75;48.60;;;;;;;;;;5032094;28;20033;-66
2021/01/18 07:58:12;;;;;;;93.70;47.88;;;;;;;;;;5032563;28;20033;-66
2021/01/18 08:00:37;;;;;;;102.80;47.65;;;;;;;;;;5031022;28;20428;-66
2021/01/18 08:03:12;;;;;;;106.35;53.35;;;;;;;;;;5032665;28;20543;-66
2021/01/18 08:05:44;;;;;;;109.35;55.13;;;;;;;;;;5032447;28;20030;-66
2021/01/18 08:08:14;;;;;;;113.15;55.75;;;;;;;;;;5032982;28;20034;-65
2021/01/18 08:10:58;;;;;;;118.32;57.70;;;;;;;;;;5031172;28;20026;-66
2021/01/18 08:13:28;;;;;;;137.73;60.47;;;;;;;;;;5028700;28;20029;-66
2021/01/18 08:15:54;;;;;;;121.43;59.03;;;;;;;;;;5032214;28;20483;-66
2021/01/18 08:18:30;;;;;;;126.15;61.17;;;;;;;;;;5032677;28;20072;-66
2021/01/18 08:20:55;;;;;;;131.57;62.05;;;;;;;;;;5032565;28;20025;-66
2021/01/18 08:23:39;;;;;;;111.88;54.45;;;;;;;;;;5033281;28;20027;-66
2021/01/18 08:26:06;;;;;;;111.40;56.47;;;;;;;;;;5019780;28;20029;-65
2021/01/18 08:28:34;;;;;;;111.30;56.70;;;;;;;;;;5031980;28;20025;-66
2021/01/18 08:30:59;;;;;;;112.57;56.83;;;;;;;;;;5031199;28;20456;-66
2021/01/18 08:33:25;;;;;;;147.98;72.43;;;;;;;;;;5033287;28;20018;-66
2021/01/18 08:35:52;;;;;;;178.10;81.72;;;;;;;;;;5033225;28;20112;-66
2021/01/18 08:38:26;;;;;;;221.85;101.40;;;;;;;;;;5027345;28;20020;-65
2021/01/18 08:40:53;;;;;;;178.88;82.55;;;;;;;;;;5033243;28;20033;-66
2021/01/18 08:43:19;;;;;;;141.30;67.32;;;;;;;;;;5032857;28;20024;-66
2021/01/18 08:45:49;;;;;;;100.70;49.30;;;;;;;;;;5033379;28;20030;-66
2021/01/18 08:48:19;;;;;;;92.30;46.70;;;;;;;;;;5035218;28;20067;-66
2021/01/18 08:50:54;;;;;;;83.35;43.15;;;;;;;;;;5037170;28;20026;-66
2021/01/18 08:53:32;;;;;;;95.82;46.30;;;;;;;;;;5037287;28;20029;-62
2021/01/18 08:56:05;;;;;;;125.80;58.55;;;;;;;;;;5037069;28;20105;-63
2021/01/18 08:58:33;;;;;;;109.15;53.28;;;;;;;;;;5037201;28;20025;-62
2021/01/18 09:00:59;;;;;;;101.80;51.00;;;;;;;;;;5036835;28;20499;-62
2021/01/18 09:03:25;;;;;;;104.50;51.70;;;;;;;;;;5033785;28;20056;-62
2021/01/18 09:05:56;;;;;;;100.70;48.75;;;;;;;;;;5033925;28;20048;-62
2021/01/18 09:08:26;;;;;;;109.13;52.22;;;;;;;;;;5032674;28;20132;-62
2021/01/18 09:10:59;;;;;;;123.63;61.20;;;;;;;;;;5034603;28;20017;-62
2021/01/18 09:13:25;;;;;;;110.28;54.88;;;;;;;;;;5035161;28;20018;-62
2021/01/18 09:15:51;;;;;;;190.13;91.40;;;;;;;;;;5036449;28;20025;-62
2021/01/18 09:18:17;;;;;;;190.98;93.00;;;;;;;;;;5036855;28;20030;-62
2021/01/18 09:20:43;;;;;;;194.90;92.25;;;;;;;;;;5036558;28;20043;-62
2021/01/18 09:23:10;;;;;;;331.30;156.20;;;;;;;;;;5033893;28;20554;-63
2021/01/18 09:25:36;;;;;;;189.27;91.43;;;;;;;;;;5033467;28;20410;-63
2021/01/18 09:28:09;;;;;;;188.93;92.85;;;;;;;;;;5034583;28;20018;-63
2021/01/18 09:30:36;;;;;;;211.98;102.15;;;;;;;;;;5027688;28;20104;-63
2021/01/18 09:33:03;;;;;;;208.38;100.57;;;;;;;;;;5035508;28;20033;-62
2021/01/18 09:35:30;;;;;;;215.23;102.60;;;;;;;;;;5034978;28;20406;-63
2021/01/18 09:37:55;;;;;;;234.82;113.82;;;;;;;;;;5035979;28;20123;-63
2021/01/18 09:40:21;;;;;;;176.60;86.80;;;;;;;;;;5036693;28;20053;-63
2021/01/18 09:42:50;;;;;;;139.85;71.20;;;;;;;;;;5036436;28;20036;-62
2021/01/18 09:45:16;;;;;;;122.13;59.75;;;;;;;;;;5036118;28;20617;-62
2021/01/18 09:47:42;;;;;;;118.35;62.35;;;;;;;;;;5036005;28;20032;-62
2021/01/18 09:50:12;;;;;;;130.35;65.15;;;;;;;;;;5035911;28;20029;-62
2021/01/18 09:52:38;;;;;;;126.40;65.53;;;;;;;;;;5035891;28;20091;-63
2021/01/18 09:55:08;;;;;;;135.30;64.35;;;;;;;;;;5035813;28;20440;-62
2021/01/18 09:57:36;;;;;;;239.43;96.90;;;;;;;;;;5034817;28;20372;-62
2021/01/18 10:00:02;;;;;;;190.50;81.13;;;;;;;;;;5036141;28;20380;-63
2021/01/18 10:02:44;;;;;;;183.35;76.90;;;;;;;;;;5036232;28;20038;-63
2021/01/18 10:05:20;;;;;;;127.25;64.00;;;;;;;;;;5035316;28;20045;-52
2021/01/18 10:07:48;;;;;;;116.57;57.33;;;;;;;;;;5035879;28;20025;-62
2021/01/18 10:10:13;;;;;;;115.65;56.80;;;;;;;;;;5035690;28;20537;-62
2021/01/18 10:12:43;;;;;;;118.63;56.67;;;;;;;;;;5035798;28;20029;-62
2021/01/18 10:15:09;;;;;;;124.68;60.30;;;;;;;;;;5034799;28;20033;-62
2021/01/18 10:17:34;;;;;;;121.88;59.72;;;;;;;;;;5035865;28;20163;-62
2021/01/18 10:20:08;;;;;;;118.93;58.63;;;;;;;;;;5035612;28;20029;-62
2021/01/18 10:22:36;;;;;;;157.90;71.18;;;;;;;;;;5035722;28;20376;-64
2021/01/18 10:25:07;;;;;;;131.20;63.67;;;;;;;;;;5033987;28;20026;-64
2021/01/18 10:27:32;;;;;;;;;;;;;;;;;;5035663;28;20036;-64
2021/01/18 10:30:14;;;;;;;153.88;70.03;;;;;;;;;;5035288;28;19905;-64
2021/01/18 10:32:43;;;;;;;183.27;72.20;;;;;;;;;;5035227;28;20040;-64
2021/01/18 10:35:28;;;;;;;159.30;71.47;;;;;;;;;;5035275;28;20026;-64
2021/01/18 10:38:08;;;;;;;157.07;87.45;;;;;;;;;;5035014;28;20041;-64
2021/01/18 10:40:34;;;;;;;274.02;136.98;;;;;;;;;;5035405;28;20033;-64
2021/01/18 10:43:02;;;;;;;134.00;67.95;;;;;;;;;;5033639;28;20032;-64
2021/01/18 10:45:38;;;;;;;116.32;58.28;;;;;;;;;;5033794;28;20076;-64
2021/01/18 10:48:05;;;;;;;118.13;57.22;;;;;;;;;;5033903;28;20049;-65
2021/01/18 10:50:32;;;;;;;116.07;56.10;;;;;;;;;;5034962;28;20028;-65
2021/01/18 10:53:03;;;;;;;261.75;123.70;;;;;;;;;;5035049;28;20480;-65
2021/01/18 10:55:29;;;;;;;371.05;189.85;;;;;;;;;;5035095;28;20025;-65
2021/01/18 10:57:54;;;;;;;156.35;79.10;;;;;;;;;;5032547;28;20029;-65
2021/01/18 11:00:21;;;;;;;141.38;69.43;;;;;;;;;;5030606;28;20068;-67
2021/01/18 11:02:52;;;;;;;140.82;67.07;;;;;;;;;;5030243;28;20025;-67
2021/01/18 11:05:18;;;;;;;120.72;57.10;;;;;;;;;;5032961;28;20515;-67
2021/01/18 11:07:47;;;;;;;117.07;56.35;;;;;;;;;;5034200;28;20037;-67
2021/01/18 11:10:13;;;;;;;113.95;54.60;;;;;;;;;;5016712;28;20030;-67
2021/01/18 11:12:41;;;;;;;114.50;54.33;;;;;;;;;;5030831;28;20407;-67
2021/01/18 11:15:15;;;;;;;108.75;52.58;;;;;;;;;;5032557;28;20029;-67
2021/01/18 11:17:42;;;;;;;105.07;51.08;;;;;;;;;;5033390;28;20034;-66
2021/01/18 11:20:08;;;;;;;103.75;47.50;;;;;;;;;;5034431;28;20021;-66
2021/01/18 11:22:34;;;;;;;101.18;48.00;;;;;;;;;;5032857;28;20128;-66
2021/01/18 11:25:00;;;;;;;100.18;47.85;;;;;;;;;;5030841;28;20104;-66
2021/01/18 11:27:25;;;;;;;100.43;47.58;;;;;;;;;;5033126;28;20112;-66
2021/01/18 11:29:51;;;;;;;95.00;46.88;;;;;;;;;;5033875;28;20087;-67
2021/01/18 11:32:18;;;;;;;100.63;47.92;;;;;;;;;;5032975;28;20045;-67
2021/01/18 11:34:46;;;;;;;94.68;47.15;;;;;;;;;;5034293;28;20025;-68
2021/01/18 11:37:13;;;;;;;92.25;46.00;;;;;;;;;;5034426;28;20044;-67
2021/01/18 11:39:38;;;;;;;93.03;47.65;;;;;;;;;;5033964;28;20021;-68
2021/01/18 11:42:06;;;;;;;92.88;44.47;;;;;;;;;;5031156;28;20044;-68
2021/01/18 11:44:31;;;;;;;89.10;45.38;;;;;;;;;;5033640;28;20459;-68
2021/01/18 11:47:01;;;;;;;97.47;46.95;;;;;;;;;;5033995;28;20036;-68
2021/01/18 11:49:27;;;;;;;96.47;44.70;;;;;;;;;;5034158;28;20063;-68
2021/01/18 11:51:57;;;;;;;92.88;44.08;;;;;;;;;;5034063;28;20132;-68
2021/01/18 11:54:23;;;;;;;86.28;42.20;;;;;;;;;;5033909;28;20076;-68
2021/01/18 11:56:48;;;;;;;83.90;40.70;;;;;;;;;;5034127;28;20117;-68
2021/01/18 11:59:14;;;;;;;84.22;40.65;;;;;;;;;;5033682;28;20448;-67
2021/01/18 12:01:46;;;;;;;78.03;39.20;;;;;;;;;;5032229;28;20476;-67
2021/01/18 12:04:13;;;;;;;81.45;37.22;;;;;;;;;;5033547;28;20053;-67
2021/01/18 12:06:40;;;;;;;81.63;38.92;;;;;;;;;;5033680;28;20053;-67
2021/01/18 12:09:09;;;;;;;83.13;39.22;;;;;;;;;;5032450;28;20468;-67
2021/01/18 12:11:39;;;;;;;75.88;37.17;;;;;;;;;;5033472;28;20022;-67
2021/01/18 12:14:06;;;;;;;78.65;38.13;;;;;;;;;;5031850;28;20129;-67
2021/01/18 12:16:31;;;;;;;83.60;40.10;;;;;;;;;;5033482;28;20413;-66
2021/01/18 12:19:00;;;;;;;81.45;39.17;;;;;;;;;;5014707;28;20052;-66
2021/01/18 12:21:30;;;;;;;;;;;;;;;;;;5032183;28;20021;-67
2021/01/18 12:23:57;;;;;;;79.07;37.10;;;;;;;;;;5033343;28;19909;-67
2021/01/18 12:26:25;;;;;;;75.25;36.08;;;;;;;;;;5033340;28;20048;-67
2021/01/18 12:28:51;;;;;;;79.40;39.67;;;;;;;;;;5033358;28;20033;-66
2021/01/18 12:31:23;;;;;;;79.70;40.22;;;;;;;;;;5033315;28;20025;-67
2021/01/18 12:33:52;;;;;;;80.38;40.03;;;;;;;;;;5031946;28;20045;-68
2021/01/18 12:36:17;;;;;;;78.75;37.95;;;;;;;;;;5033020;28;20113;-67
2021/01/18 12:38:43;;;;;;;84.85;41.20;;;;;;;;;;5033359;28;20049;-67
2021/01/18 12:41:10;;;;;;;110.75;50.80;;;;;;;;;;5032330;28;20112;-66
2021/01/18 12:43:36;;;;;;;89.03;43.22;;;;;;;;;;5032934;28;20037;-66
2021/01/18 12:46:01;;;;;;;86.53;41.33;;;;;;;;;;5032048;28;20010;-66
2021/01/18 12:48:29;;;;;;;88.30;43.30;;;;;;;;;;5032178;28;20445;-66
2021/01/18 12:50:55;;;;;;;85.07;40.25;;;;;;;;;;5031859;28;20044;-66
2021/01/18 12:53:45;;;;;;;84.95;41.90;;;;;;;;;;5033120;28;20476;-66
2021/01/18 12:56:11;;;;;;;84.45;41.35;;;;;;;;;;5032626;28;20074;-66
2021/01/18 12:58:37;;;;;;;80.82;40.03;;;;;;;;;;5031410;28;20056;-65
2021/01/18 13:01:03;;;;;;;82.55;38.90;;;;;;;;;;5033309;28;20065;-65
2021/01/18 13:03:29;;;;;;;92.93;42.72;;;;;;;;;;5031495;28;20092;-65
2021/01/18 13:05:56;;;;;;;93.28;44.33;;;;;;;;;;5032546;28;20540;-65
2021/01/18 13:08:25;;;;;;;98.10;46.78;;;;;;;;;;5033045;28;20499;-65
2021/01/18 13:10:58;;;;;;;105.20;48.33;;;;;;;;;;5033185;28;20372;-65
2021/01/18 13:13:23;;;;;;;114.53;49.83;;;;;;;;;;5031931;28;20034;-65
2021/01/18 13:15:50;;;;;;;113.60;49.80;;;;;;;;;;5031684;28;20112;-65
2021/01/18 13:18:16;;;;;;;108.32;51.03;;;;;;;;;;5032964;28;20026;-65
2021/01/18 13:20:42;;;;;;;110.55;51.08;;;;;;;;;;5031861;28;20060;-65
2021/01/18 13:23:08;;;;;;;94.80;45.55;;;;;;;;;;5032935;28;20117;-65
2021/01/18 13:25:33;;;;;;;89.45;43.65;;;;;;;;;;5032862;28;20079;-66
2021/01/18 13:27:59;;;;;;;87.40;42.97;;;;;;;;;;5032691;28;20029;-65
2021/01/18 13:30:24;;;;;;;97.50;44.55;;;;;;;;;;5032695;28;20587;-65
2021/01/18 13:32:50;;;;;;;94.63;44.80;;;;;;;;;;5032774;28;20033;-66
2021/01/18 13:35:16;;;;;;;97.03;45.45;;;;;;;;;;5036350;28;20027;-65
2021/01/18 13:37:42;;;;;;;97.25;46.95;;;;;;;;;;5036108;28;20120;-65
2021/01/18 13:40:07;;;;;;;101.38;48.35;;;;;;;;;;5036508;28;20410;-67
2021/01/18 13:42:36;;;;;;;104.25;50.50;;;;;;;;;;5036051;28;20025;-67
2021/01/18 13:45:01;;;;;;;105.22;50.13;;;;;;;;;;5035081;28;20092;-70
2021/01/18 13:47:27;;;;;;;110.88;51.33;;;;;;;;;;5036303;28;20121;-70
2021/01/18 13:49:52;;;;;;;105.15;50.05;;;;;;;;;;5034984;28;20018;-70
2021/01/18 13:52:18;;;;;;;116.25;52.25;;;;;;;;;;5034826;28;20044;-70
2021/01/18 13:54:43;;;;;;;99.15;49.88;;;;;;;;;;5034981;28;20029;-70
2021/01/18 13:57:09;;;;;;;101.60;50.70;;;;;;;;;;5036045;28;20044;-70
2021/01/18 13:59:34;;;;;;;111.53;53.20;;;;;;;;;;5035896;28;20025;-70
2021/01/18 14:02:01;;;;;;;159.82;70.30;;;;;;;;;;5035830;28;20056;-70
2021/01/18 14:04:26;;;;;;;255.45;101.10;;;;;;;;;;5035687;28;20468;-69
2021/01/18 14:06:52;;;;;;;206.15;92.60;;;;;;;;;;5035785;28;20116;-70
2021/01/18 14:09:18;;;;;;;155.40;75.22;;;;;;;;;;5035900;28;20130;-70
2021/01/18 14:11:45;;;;;;;133.30;62.45;;;;;;;;;;5034623;28;20132;-70
2021/01/18 14:14:11;;;;;;;123.53;63.38;;;;;;;;;;5036024;28;20025;-70
2021/01/18 14:16:38;;;;;;;168.93;96.63;;;;;;;;;;5034771;28;20038;-70